Riverdale, Georgia
Current Conditions -  °F | °C
As of 1:52 AM on Thursday 23 Oct 2014 (Local Time) from KATL Reporting Station
Clear Clear  
Wind Chill: 47°   Ceiling: Unl
Heat Index: 49°   Visibility: 10mi
Dew Point: 41°   Wind: 5mph
Humidity: 74%   Direction: 350°N
Pressure: 30.1"   Gusts: NA
Location:  33.57°N, 84.41°W
Report Text: KATL 230552Z 35004KT 10SM CLR 09/05 A3010 RMK AO2 SLP191 T00940050 10161 20094 58005
Loading
Personal Weather Stations






























Interactive Weather Map New forecast layout! Learn more

10-Day Weather Forecast

Advertisements
Track Severe Weather on mobile